createdAt,value
2019-01-11T00:01:23.361Z,90.97
2019-01-11T00:03:54.361Z,90.99
2019-01-11T00:06:25.242Z,91.01
2019-01-11T00:08:56.035Z,91.03
2019-01-11T00:11:26.803Z,91.02
2019-01-11T00:13:57.535Z,91.02
2019-01-11T00:16:28.331Z,90.96
2019-01-11T00:18:59.850Z,90.86
2019-01-11T00:21:30.489Z,90.81
2019-01-11T00:24:01.113Z,90.80
2019-01-11T00:26:31.699Z,90.76
2019-01-11T00:29:02.341Z,90.75
2019-01-11T00:31:33.339Z,90.75
2019-01-11T00:34:04.299Z,90.74
2019-01-11T00:36:34.928Z,90.78
2019-01-11T00:39:08.220Z,90.76
2019-01-11T00:41:38.859Z,90.74
2019-01-11T00:44:09.570Z,90.69
2019-01-11T00:46:40.618Z,90.68
2019-01-11T00:49:13.604Z,90.61
2019-01-11T00:51:43.533Z,90.61
2019-01-11T00:54:14.998Z,90.58
2019-01-11T00:56:45.578Z,90.55
2019-01-11T00:59:16.222Z,90.55
2019-01-11T01:01:46.971Z,90.58
2019-01-11T01:04:17.851Z,90.71
2019-01-11T01:06:48.542Z,90.75
2019-01-11T01:09:19.109Z,90.85
2019-01-11T01:11:49.878Z,90.88
2019-01-11T01:14:20.506Z,90.85
2019-01-11T01:16:51.129Z,90.89
2019-01-11T01:19:22.161Z,90.91
2019-01-11T01:21:52.789Z,90.79
2019-01-11T01:24:23.408Z,90.83
2019-01-11T01:26:54.153Z,90.85
2019-01-11T01:29:25.088Z,90.73
2019-01-11T01:31:55.633Z,90.72
2019-01-11T01:34:26.252Z,90.73
2019-01-11T01:36:56.809Z,90.62
2019-01-11T01:39:27.390Z,90.60
2019-01-11T01:41:58.090Z,90.52
2019-01-11T01:44:28.779Z,90.42
2019-01-11T01:46:59.398Z,90.30
2019-01-11T01:49:30.009Z,90.36
2019-01-11T01:52:00.663Z,90.40
2019-01-11T01:54:31.430Z,90.40
2019-01-11T01:57:02.093Z,90.46
2019-01-11T01:59:32.685Z,90.68
2019-01-11T02:02:03.369Z,90.76
2019-01-11T02:04:34.378Z,90.71
2019-01-11T02:07:04.948Z,90.69
2019-01-11T02:09:35.573Z,90.62
2019-01-11T02:12:06.128Z,90.56
2019-01-11T02:14:36.683Z,90.48
2019-01-11T02:17:07.318Z,90.35
2019-01-11T02:19:37.881Z,90.28
2019-01-11T02:22:08.579Z,90.23
2019-01-11T02:24:39.343Z,90.05
2019-01-11T02:27:09.980Z,89.90
2019-01-11T02:29:40.615Z,89.88
2019-01-11T02:32:11.368Z,89.79
2019-01-11T02:34:41.932Z,89.73
2019-01-11T02:37:12.609Z,89.72
2019-01-11T02:39:43.249Z,89.78
2019-01-11T02:42:14.249Z,89.68
2019-01-11T02:44:44.930Z,89.65
2019-01-11T02:47:15.549Z,89.58
2019-01-11T02:49:46.689Z,89.61
2019-01-11T02:52:17.260Z,89.70
2019-01-11T02:54:47.859Z,89.73
2019-01-11T02:57:18.491Z,89.72
2019-01-11T02:59:49.151Z,89.74
2019-01-11T03:02:19.951Z,89.60
2019-01-11T03:04:50.602Z,89.45
2019-01-11T03:07:21.287Z,89.36
2019-01-11T03:09:51.910Z,89.14
2019-01-11T03:12:22.482Z,88.93
2019-01-11T03:14:53.109Z,89.03
2019-01-11T03:17:23.792Z,88.94
2019-01-11T03:19:54.417Z,88.91
2019-01-11T03:22:25.012Z,88.90
2019-01-11T03:24:55.618Z,88.71
2019-01-11T03:27:26.250Z,88.57
2019-01-11T03:29:56.859Z,88.44
2019-01-11T03:32:27.419Z,88.41
2019-01-11T03:35:16.848Z,88.45
2019-01-11T03:37:51.028Z,88.39
2019-01-11T03:40:26.612Z,88.38
2019-01-11T03:42:57.362Z,88.30
2019-01-11T03:45:28.004Z,88.21
2019-01-11T03:47:58.680Z,88.08
2019-01-11T03:50:29.268Z,88.10
2019-01-11T03:52:59.812Z,88.22
2019-01-11T03:55:30.350Z,88.08
2019-01-11T03:58:00.907Z,87.96
2019-01-11T04:00:31.604Z,87.99
2019-01-11T04:03:02.188Z,88.02
2019-01-11T04:05:32.822Z,88.02
2019-01-11T04:08:03.427Z,87.97
2019-01-11T04:10:33.969Z,88.06
2019-01-11T04:13:04.622Z,88.18
2019-01-11T04:15:35.428Z,88.26
2019-01-11T04:18:25.130Z,88.23
2019-01-11T04:20:57.104Z,88.24
2019-01-11T04:23:27.886Z,88.11
2019-01-11T04:25:58.778Z,88.16
2019-01-11T04:28:29.481Z,88.21
2019-01-11T04:31:00.188Z,88.17
2019-01-11T04:33:30.912Z,88.15
2019-01-11T04:36:01.370Z,88.28
2019-01-11T04:38:32.137Z,88.44
2019-01-11T04:41:02.696Z,88.48
2019-01-11T04:43:33.257Z,88.57
2019-01-11T04:46:03.864Z,88.59
2019-01-11T04:48:34.411Z,88.60
2019-01-11T04:51:05.289Z,88.69
2019-01-11T04:53:35.802Z,88.67
2019-01-11T04:56:06.540Z,88.69
2019-01-11T04:58:37.037Z,88.67
2019-01-11T05:01:07.659Z,88.64
2019-01-11T05:03:38.390Z,88.76
2019-01-11T05:06:08.950Z,88.67
2019-01-11T05:08:40.854Z,88.59
2019-01-11T05:11:11.437Z,88.61
2019-01-11T05:13:44.280Z,88.44
2019-01-11T05:16:15.036Z,88.25
2019-01-11T05:18:45.527Z,88.04
2019-01-11T05:21:16.227Z,87.97
2019-01-11T05:23:46.789Z,88.03
2019-01-11T05:26:17.390Z,87.87
2019-01-11T05:28:48.018Z,87.97
2019-01-11T05:31:18.785Z,88.01
2019-01-11T05:33:49.591Z,88.12
2019-01-11T05:36:20.317Z,88.03
2019-01-11T05:38:51.350Z,88.00
2019-01-11T05:41:21.959Z,87.87
2019-01-11T05:43:52.519Z,87.62
2019-01-11T05:46:23.194Z,87.30
2019-01-11T05:48:54.506Z,86.43
2019-01-11T05:51:24.985Z,86.77
2019-01-11T05:53:55.672Z,87.60
2019-01-11T05:56:26.347Z,87.62
2019-01-11T05:59:01.714Z,87.89
2019-01-11T06:01:32.369Z,88.07
2019-01-11T06:04:05.302Z,88.33
2019-01-11T06:06:54.795Z,88.68
2019-01-11T06:09:25.689Z,88.40
2019-01-11T06:11:56.259Z,87.86
2019-01-11T06:14:26.869Z,87.59
2019-01-11T06:16:57.481Z,87.60
2019-01-11T06:19:28.267Z,87.91
2019-01-11T06:21:58.741Z,87.58
2019-01-11T06:24:29.339Z,87.55
2019-01-11T06:26:59.978Z,87.80
2019-01-11T06:29:30.576Z,87.38
2019-01-11T06:32:01.278Z,87.98
2019-01-11T06:34:31.872Z,88.49
2019-01-11T06:37:02.511Z,89.01
2019-01-11T06:39:33.189Z,89.27
2019-01-11T06:42:13.687Z,89.17
2019-01-11T06:44:44.291Z,89.24
2019-01-11T06:47:14.979Z,89.53
2019-01-11T06:49:45.607Z,89.75
2019-01-11T06:52:16.177Z,89.76
2019-01-11T06:54:46.812Z,89.66
2019-01-11T06:57:17.650Z,89.49
2019-01-11T06:59:48.318Z,89.52
2019-01-11T07:02:19.075Z,89.57
2019-01-11T07:04:50.037Z,89.62
2019-01-11T07:07:20.739Z,89.47
2019-01-11T07:09:51.629Z,89.57
2019-01-11T07:12:23.202Z,89.61
2019-01-11T07:14:53.848Z,89.72
2019-01-11T07:17:24.639Z,89.77
2019-01-11T07:19:55.298Z,89.77
2019-01-11T07:22:26.098Z,89.84
2019-01-11T07:24:56.808Z,89.91
2019-01-11T07:27:29.109Z,88.74
2019-01-11T07:29:59.974Z,85.93
2019-01-11T07:32:30.539Z,83.12
2019-01-11T07:35:01.149Z,81.74
2019-01-11T07:37:31.844Z,81.12
2019-01-11T07:40:02.690Z,79.88
2019-01-11T07:42:33.230Z,79.25
2019-01-11T07:45:03.959Z,79.75
2019-01-11T07:47:34.705Z,80.96
2019-01-11T07:50:06.168Z,80.87
2019-01-11T07:52:36.849Z,81.47
2019-01-11T07:55:08.649Z,81.18
2019-01-11T07:57:39.257Z,80.85
2019-01-11T08:00:10.833Z,80.73
2019-01-11T08:02:42.095Z,80.80
2019-01-11T08:05:13.413Z,80.03
2019-01-11T08:07:44.028Z,78.71
2019-01-11T08:10:14.878Z,76.47
2019-01-11T08:12:45.769Z,74.26
2019-01-11T08:15:17.297Z,70.51
2019-01-11T08:17:47.923Z,70.00
2019-01-11T08:20:18.628Z,68.03
2019-01-11T08:22:49.188Z,66.39
2019-01-11T08:25:19.731Z,63.37
2019-01-11T08:27:50.493Z,59.64
2019-01-11T08:30:21.196Z,56.46
2019-01-11T08:32:51.780Z,54.73
2019-01-11T08:35:22.738Z,55.50
2019-01-11T08:37:53.313Z,53.27
2019-01-11T08:40:23.877Z,52.42
2019-01-11T08:42:54.448Z,50.68
2019-01-11T08:45:25.328Z,50.82
2019-01-11T08:47:55.960Z,51.29
2019-01-11T08:50:26.572Z,49.95
2019-01-11T08:52:57.623Z,48.40
2019-01-11T08:55:29.297Z,49.26
2019-01-11T08:57:59.936Z,50.72
2019-01-11T09:00:30.533Z,50.79
2019-01-11T09:03:01.165Z,51.70
2019-01-11T09:05:31.697Z,52.11
2019-01-11T09:08:02.251Z,52.05
2019-01-11T09:10:32.981Z,50.32
2019-01-11T09:13:03.433Z,48.34
2019-01-11T09:15:34.342Z,47.20
2019-01-11T09:18:15.719Z,45.82
2019-01-11T09:20:46.434Z,43.33
2019-01-11T09:23:17.209Z,44.38
2019-01-11T09:25:47.881Z,44.27
2019-01-11T09:28:18.413Z,44.11
2019-01-11T09:30:49.067Z,44.73
2019-01-11T09:33:20.721Z,46.16
2019-01-11T09:35:51.443Z,45.66
2019-01-11T09:38:22.259Z,44.18
2019-01-11T09:40:52.795Z,44.25
2019-01-11T09:43:23.318Z,42.88
2019-01-11T09:45:53.929Z,41.03
2019-01-11T09:48:24.470Z,41.58
2019-01-11T09:50:55.002Z,40.08
2019-01-11T09:53:25.727Z,41.62
2019-01-11T09:55:56.282Z,45.07
2019-01-11T09:58:26.977Z,45.84
2019-01-11T10:00:59.246Z,46.14
2019-01-11T10:03:29.964Z,47.66
2019-01-11T10:06:00.782Z,48.76
2019-01-11T10:08:31.414Z,49.47
2019-01-11T10:11:02.144Z,51.11
2019-01-11T10:13:32.808Z,54.30
2019-01-11T10:16:03.384Z,55.50
2019-01-11T10:18:33.930Z,55.69
2019-01-11T10:21:04.937Z,55.98
2019-01-11T10:23:35.497Z,56.46
2019-01-11T10:26:07.483Z,55.21
2019-01-11T10:28:38.141Z,54.74
2019-01-11T10:31:08.652Z,51.98
2019-01-11T10:33:39.245Z,50.55
2019-01-11T10:36:09.918Z,51.94
2019-01-11T10:38:40.519Z,51.93
2019-01-11T10:41:11.257Z,53.91
2019-01-11T10:43:41.796Z,55.63
2019-01-11T10:46:32.282Z,57.09
2019-01-11T10:49:02.881Z,57.52
2019-01-11T10:51:33.451Z,58.39
2019-01-11T10:54:04.202Z,60.11
2019-01-11T10:56:35.198Z,60.47
2019-01-11T10:59:06.073Z,61.82
2019-01-11T11:01:36.589Z,62.19
2019-01-11T11:04:07.268Z,61.84
2019-01-11T11:06:37.910Z,62.77
2019-01-11T11:09:09.684Z,63.78
2019-01-11T11:11:40.378Z,63.75
2019-01-11T11:14:11.069Z,63.91
2019-01-11T11:16:41.903Z,64.40
2019-01-11T11:19:12.515Z,64.47
2019-01-11T11:21:43.126Z,64.37
2019-01-11T11:24:13.722Z,63.24
2019-01-11T11:26:44.331Z,63.66
2019-01-11T11:29:14.900Z,61.88
2019-01-11T11:31:45.637Z,60.44
2019-01-11T11:34:16.672Z,59.70
2019-01-11T11:36:47.126Z,60.82
2019-01-11T11:39:17.941Z,61.56
2019-01-11T11:41:48.569Z,63.42
2019-01-11T11:44:19.268Z,64.00
2019-01-11T11:46:49.870Z,65.23
2019-01-11T11:49:20.547Z,65.71
2019-01-11T11:51:51.108Z,65.74
2019-01-11T11:54:21.677Z,66.06
2019-01-11T11:56:52.268Z,66.06
2019-01-11T11:59:22.796Z,66.55
2019-01-11T12:01:53.310Z,66.74
2019-01-11T12:04:23.898Z,66.85
2019-01-11T12:06:54.590Z,66.97
2019-01-11T12:09:25.553Z,67.85
2019-01-11T12:11:56.073Z,66.77
2019-01-11T12:14:26.638Z,66.66
2019-01-11T12:16:57.332Z,66.46
2019-01-11T12:19:27.899Z,66.27
2019-01-11T12:22:01.751Z,64.81
2019-01-11T12:24:30.812Z,64.91
2019-01-11T12:27:01.519Z,65.24
2019-01-11T12:29:32.177Z,66.45
2019-01-11T12:32:02.631Z,66.51
2019-01-11T12:34:33.172Z,66.08
2019-01-11T12:37:03.756Z,66.74
2019-01-11T12:39:34.377Z,65.97
2019-01-11T12:42:05.059Z,65.71
2019-01-11T12:44:36.426Z,66.47
2019-01-11T12:47:07.188Z,66.96
2019-01-11T12:49:37.798Z,66.42
2019-01-11T12:52:08.427Z,66.93
2019-01-11T12:54:39.096Z,66.35
2019-01-11T12:57:09.628Z,66.44
2019-01-11T12:59:40.692Z,67.49
2019-01-11T13:02:11.279Z,66.66
2019-01-11T13:04:42.148Z,67.69
2019-01-11T13:07:12.953Z,66.81
2019-01-11T13:09:43.427Z,67.09
2019-01-11T13:12:14.107Z,67.59
2019-01-11T13:14:44.839Z,66.68
2019-01-11T13:17:15.960Z,67.43
2019-01-11T13:19:48.232Z,67.75
2019-01-11T13:22:19.008Z,67.93
2019-01-11T13:24:49.965Z,68.51
2019-01-11T13:27:20.511Z,68.42
2019-01-11T13:29:51.097Z,67.38
2019-01-11T13:32:21.774Z,67.75
2019-01-11T13:34:52.380Z,68.33
2019-01-11T13:37:22.912Z,68.87
2019-01-11T13:39:53.732Z,69.24
2019-01-11T13:42:24.278Z,68.61
2019-01-11T13:44:54.904Z,69.48
2019-01-11T13:47:25.739Z,70.04
2019-01-11T13:49:56.260Z,70.77
2019-01-11T13:52:26.808Z,71.42
2019-01-11T13:54:57.323Z,72.81
2019-01-11T13:57:27.959Z,73.89
2019-01-11T13:59:58.575Z,75.30
2019-01-11T14:02:29.499Z,76.87
2019-01-11T14:05:00.223Z,78.49
2019-01-11T14:07:31.789Z,79.48
2019-01-11T14:10:02.250Z,80.46
2019-01-11T14:12:32.808Z,80.67
2019-01-11T14:15:03.618Z,80.72
2019-01-11T14:17:34.679Z,81.58
2019-01-11T14:20:06.229Z,82.21
2019-01-11T14:22:36.966Z,82.77
2019-01-11T14:25:08.238Z,83.08
2019-01-11T14:27:38.938Z,83.69
2019-01-11T14:30:10.759Z,83.44
2019-01-11T14:32:41.420Z,83.97
2019-01-11T14:35:12.475Z,84.07
2019-01-11T14:37:43.130Z,84.58
2019-01-11T14:40:15.831Z,84.86
2019-01-11T14:42:46.889Z,85.13
2019-01-11T14:45:18.669Z,85.55
2019-01-11T14:47:49.908Z,85.77
2019-01-11T14:50:21.562Z,85.90
2019-01-11T14:52:52.518Z,86.11
2019-01-11T14:55:23.130Z,86.40
2019-01-11T14:57:53.811Z,86.77
2019-01-11T15:00:25.399Z,87.02
2019-01-11T15:02:56.069Z,87.32
2019-01-11T15:05:26.787Z,87.74
2019-01-11T15:07:57.500Z,87.97
2019-01-11T15:10:28.349Z,88.02
2019-01-11T15:12:59.128Z,88.09
2019-01-11T15:15:29.778Z,88.04
2019-01-11T15:18:00.618Z,88.22
2019-01-11T15:20:31.248Z,88.03
2019-01-11T15:23:02.972Z,88.28
2019-01-11T15:25:33.982Z,88.40
2019-01-11T15:28:04.576Z,88.49
2019-01-11T15:30:35.231Z,88.63
2019-01-11T15:33:05.931Z,88.79
2019-01-11T15:35:36.638Z,88.91
2019-01-11T15:38:08.258Z,89.04
2019-01-11T15:40:39.009Z,89.27
2019-01-11T15:43:09.619Z,89.49
2019-01-11T15:45:40.270Z,89.62
2019-01-11T15:48:17.907Z,89.71
2019-01-11T15:50:58.064Z,89.85
2019-01-11T15:53:37.995Z,90.00
2019-01-11T15:56:12.379Z,90.15
2019-01-11T15:58:43.208Z,90.22
2019-01-11T16:01:13.868Z,90.35
2019-01-11T16:03:45.407Z,90.40
2019-01-11T16:06:29.884Z,90.45
2019-01-11T16:10:00.640Z,90.52
2019-01-11T16:13:17.290Z,90.54
2019-01-11T16:16:22.107Z,90.68
2019-01-11T16:18:55.308Z,90.77
2019-01-11T16:21:25.937Z,90.85
2019-01-11T16:23:56.648Z,90.84
2019-01-11T16:26:27.271Z,90.86
2019-01-11T16:28:58.233Z,90.88
2019-01-11T16:31:28.800Z,90.93
2019-01-11T16:33:59.639Z,90.97
2019-01-11T16:36:30.238Z,91.00
2019-01-11T16:39:01.069Z,91.04
2019-01-11T16:41:31.672Z,91.10
2019-01-11T16:44:02.393Z,91.16
2019-01-11T16:46:33.012Z,91.21
2019-01-11T16:49:03.801Z,91.28
2019-01-11T16:51:34.402Z,91.34
2019-01-11T16:54:05.049Z,91.40
2019-01-11T16:56:35.673Z,91.44
2019-01-11T16:59:07.475Z,91.48
2019-01-11T17:01:38.229Z,91.56
2019-01-11T17:04:09.338Z,91.60
2019-01-11T17:06:40.268Z,91.65
2019-01-11T17:09:11.581Z,91.73
2019-01-11T17:11:42.290Z,91.74
2019-01-11T17:14:13.102Z,91.81
2019-01-11T17:16:43.858Z,91.85
2019-01-11T17:19:14.488Z,91.87
2019-01-11T17:21:45.368Z,91.91
2019-01-11T17:24:16.973Z,91.99
2019-01-11T17:26:47.951Z,92.02
2019-01-11T17:29:18.629Z,92.08
2019-01-11T17:31:49.431Z,92.12
2019-01-11T17:34:20.240Z,92.16
2019-01-11T17:36:50.980Z,92.21
2019-01-11T17:39:21.723Z,92.24
2019-01-11T17:41:52.544Z,92.27
2019-01-11T17:44:23.213Z,92.31
2019-01-11T17:46:54.889Z,92.36
2019-01-11T17:49:25.464Z,92.41
2019-01-11T17:51:56.292Z,92.45
2019-01-11T17:54:26.868Z,92.48
2019-01-11T17:56:57.692Z,92.52
2019-01-11T17:59:28.302Z,92.56
2019-01-11T18:01:58.854Z,92.59
2019-01-11T18:04:29.371Z,92.60
2019-01-11T18:07:00.108Z,92.63
2019-01-11T18:09:30.798Z,92.63
2019-01-11T18:12:01.700Z,92.66
2019-01-11T18:14:32.535Z,92.67
2019-01-11T18:17:04.637Z,92.71
2019-01-11T18:19:39.647Z,92.72
2019-01-11T18:22:16.018Z,92.75
2019-01-11T18:24:47.035Z,92.75
2019-01-11T18:27:17.812Z,92.81
2019-01-11T18:29:50.779Z,92.82
2019-01-11T18:32:21.569Z,92.88
2019-01-11T18:34:55.511Z,92.91
2019-01-11T18:37:28.118Z,92.95
2019-01-11T18:39:58.541Z,92.96
2019-01-11T18:42:30.438Z,93.00
2019-01-11T18:45:01.103Z,93.03
2019-01-11T18:47:34.193Z,93.08
2019-01-11T18:50:08.498Z,93.09
2019-01-11T18:52:39.258Z,93.12
2019-01-11T18:55:11.529Z,93.16
2019-01-11T18:57:42.362Z,93.17
2019-01-11T19:00:22.593Z,93.22
2019-01-11T19:02:53.422Z,93.25
2019-01-11T19:05:25.423Z,93.27
2019-01-11T19:07:56.335Z,93.31
2019-01-11T19:10:27.052Z,93.35
2019-01-11T19:13:00.988Z,93.37
2019-01-11T19:15:32.586Z,93.40
2019-01-11T19:18:06.569Z,93.41
2019-01-11T19:20:45.479Z,93.49
2019-01-11T19:23:20.619Z,93.54
2019-01-11T19:25:51.610Z,93.55
2019-01-11T19:28:22.374Z,93.60
2019-01-11T19:30:53.075Z,93.64
2019-01-11T19:33:24.645Z,93.66
2019-01-11T19:35:56.416Z,93.71
2019-01-11T19:38:27.802Z,93.72
2019-01-11T19:41:06.492Z,93.73
2019-01-11T19:43:40.217Z,93.75
2019-01-11T19:46:15.337Z,93.75
2019-01-11T19:48:48.844Z,93.76
2019-01-11T19:51:29.330Z,93.78
2019-01-11T19:54:01.163Z,93.78
2019-01-11T19:56:44.856Z,93.75
2019-01-11T19:59:15.939Z,93.73
2019-01-11T20:01:46.663Z,93.72
2019-01-11T20:04:18.548Z,93.69
2019-01-11T20:06:55.564Z,93.68
2019-01-11T20:09:29.382Z,93.67
2019-01-11T20:12:00.979Z,93.66
2019-01-11T20:14:38.831Z,93.64
2019-01-11T20:17:14.185Z,93.64
2019-01-11T20:19:46.638Z,93.62
2019-01-11T20:22:24.401Z,93.60
2019-01-11T20:24:57.854Z,93.59
2019-01-11T20:27:33.146Z,93.58
2019-01-11T20:30:04.059Z,93.54
2019-01-11T20:32:35.879Z,93.52
2019-01-11T20:35:09.452Z,93.48
2019-01-11T20:37:44.423Z,93.47
2019-01-11T20:40:21.710Z,93.43
2019-01-11T20:42:55.393Z,93.37
2019-01-11T20:45:32.008Z,93.32
2019-01-11T20:48:06.211Z,93.27
2019-01-11T20:50:42.635Z,93.21
2019-01-11T20:53:13.871Z,93.16
2019-01-11T20:55:48.472Z,93.11
2019-01-11T20:58:27.582Z,93.07
2019-01-11T21:01:10.610Z,93.05
2019-01-11T21:03:44.373Z,93.06
2019-01-11T21:06:20.305Z,93.06
2019-01-11T21:08:55.802Z,93.08
2019-01-11T21:11:31.872Z,93.09
2019-01-11T21:14:09.043Z,93.09
2019-01-11T21:16:44.596Z,93.09
2019-01-11T21:19:23.246Z,93.10
2019-01-11T21:21:55.205Z,93.12
2019-01-11T21:24:26.271Z,93.11
2019-01-11T21:26:57.123Z,93.14
2019-01-11T21:29:32.091Z,93.15
2019-01-11T21:32:02.883Z,93.17
2019-01-11T21:34:35.039Z,93.19
2019-01-11T21:37:07.272Z,93.21
2019-01-11T21:39:38.610Z,93.21
2019-01-11T21:42:09.307Z,93.23
2019-01-11T21:44:40.479Z,93.26
2019-01-11T21:47:13.008Z,93.27
2019-01-11T21:49:44.888Z,93.28
2019-01-11T21:52:17.405Z,93.32
2019-01-11T21:54:48.233Z,93.33
2019-01-11T21:57:18.871Z,93.35
2019-01-11T21:59:49.783Z,93.34
2019-01-11T22:02:20.527Z,93.35
2019-01-11T22:04:51.223Z,93.36
2019-01-11T22:07:21.879Z,93.38
2019-01-11T22:09:52.751Z,93.39
2019-01-11T22:12:23.318Z,93.43
2019-01-11T22:14:54.171Z,93.43
2019-01-11T22:17:24.899Z,93.44
2019-01-11T22:19:55.919Z,93.45
2019-01-11T22:22:26.603Z,93.48
2019-01-11T22:24:57.174Z,93.47
2019-01-11T22:27:27.892Z,93.48
2019-01-11T22:29:58.369Z,93.49
2019-01-11T22:32:28.889Z,93.49
2019-01-11T22:34:59.528Z,93.49
2019-01-11T22:37:30.174Z,93.48
2019-01-11T22:40:00.799Z,93.47
2019-01-11T22:42:31.468Z,93.47
2019-01-11T22:45:02.078Z,93.47
2019-01-11T22:47:32.778Z,93.47
2019-01-11T22:50:03.473Z,93.48
2019-01-11T22:52:34.099Z,93.46
2019-01-11T22:55:05.850Z,93.46
2019-01-11T22:57:36.469Z,93.49
2019-01-11T23:00:36.963Z,93.46
2019-01-11T23:03:16.138Z,93.50
2019-01-11T23:05:47.375Z,93.50
2019-01-11T23:08:21.732Z,93.54
2019-01-11T23:11:26.391Z,93.54
2019-01-11T23:13:57.012Z,93.58
2019-01-11T23:16:44.959Z,93.60
2019-01-11T23:19:15.621Z,93.60
2019-01-11T23:21:46.272Z,93.61
2019-01-11T23:24:17.515Z,93.63
2019-01-11T23:26:48.487Z,93.62
2019-01-11T23:29:19.021Z,93.63
2019-01-11T23:31:49.519Z,93.67
2019-01-11T23:34:20.231Z,93.69
2019-01-11T23:36:50.803Z,93.67
2019-01-11T23:39:21.819Z,93.68
2019-01-11T23:41:52.359Z,93.67
2019-01-11T23:44:23.038Z,93.69
2019-01-11T23:46:53.653Z,93.71
2019-01-11T23:49:24.208Z,93.72
2019-01-11T23:51:54.853Z,93.78
2019-01-11T23:54:25.470Z,93.80
2019-01-11T23:56:56.078Z,93.81
2019-01-11T23:59:26.727Z,93.81
